Time;durP1;ratioP1;P1;durP2;ratioP2;P2;SDS_P1;SDS_P2;PMS_P1;PMS_P2;Temp;Humidity;BMP_temperature;BMP_pressure;BME280_temperature;BME280_humidity;BME280_pressure;Samples;Min_cycle;Max_cycle;Signal;HPM_P1;HPM_P2
2022/04/15 00:01:40;;;;;;;11.70;6.93;;;;;;;;;;4995795;28;20029;-62
2022/04/15 00:04:06;;;;;;;11.65;7.28;;;;;;;;;;4995452;28;20054;-61
2022/04/15 00:06:32;;;;;;;12.13;7.35;;;;;;;;;;4995318;28;20430;-59
2022/04/15 00:08:58;;;;;;;13.40;7.47;;;;;;;;;;4995443;28;20042;-60
2022/04/15 00:11:24;;;;;;;16.42;7.88;;;;;;;;;;4995562;28;20034;-60
2022/04/15 00:13:49;;;;;;;14.95;7.90;;;;;;;;;;4995471;28;20037;-59
2022/04/15 00:16:15;;;;;;;12.50;8.25;;;;;;;;;;4995093;28;20435;-59
2022/04/15 00:18:41;;;;;;;15.15;7.43;;;;;;;;;;4995365;28;20352;-59
2022/04/15 00:21:07;;;;;;;14.70;7.65;;;;;;;;;;4995059;28;20026;-60
2022/04/15 00:23:34;;;;;;;11.77;6.10;;;;;;;;;;4995240;28;20027;-60
2022/04/15 00:26:00;;;;;;;8.52;5.30;;;;;;;;;;4993947;28;20433;-59
2022/04/15 00:28:26;;;;;;;11.95;5.30;;;;;;;;;;4995174;28;20059;-59
2022/04/15 00:30:53;;;;;;;8.90;5.25;;;;;;;;;;4995187;28;20023;-59
2022/04/15 00:33:18;;;;;;;9.70;4.75;;;;;;;;;;4995005;28;20065;-61
2022/04/15 00:35:44;;;;;;;7.93;4.90;;;;;;;;;;4994932;28;20046;-60
2022/04/15 00:38:09;;;;;;;13.25;5.13;;;;;;;;;;4995060;28;20460;-59
2022/04/15 00:40:35;;;;;;;8.60;4.95;;;;;;;;;;4994878;28;20061;-61
2022/04/15 00:43:01;;;;;;;13.23;4.50;;;;;;;;;;4994944;28;20034;-62
2022/04/15 00:45:26;;;;;;;10.00;5.30;;;;;;;;;;4994734;28;20034;-61
2022/04/15 00:47:56;;;;;;;10.52;5.18;;;;;;;;;;4994936;28;20031;-60
2022/04/15 00:50:27;;;;;;;13.10;5.65;;;;;;;;;;4994471;28;20100;-61
2022/04/15 00:52:54;;;;;;;15.85;5.90;;;;;;;;;;4994702;28;20446;-60
2022/04/15 00:55:22;;;;;;;8.93;5.13;;;;;;;;;;4994631;28;20027;-62
2022/04/15 00:57:55;;;;;;;16.58;6.53;;;;;;;;;;4994735;28;20101;-60
2022/04/15 01:00:20;;;;;;;14.50;5.57;;;;;;;;;;4994548;28;20384;-61
2022/04/15 01:02:47;;;;;;;11.05;5.97;;;;;;;;;;4994514;28;20050;-59
2022/04/15 01:05:13;;;;;;;10.43;5.05;;;;;;;;;;4994318;28;20105;-61
2022/04/15 01:07:50;;;;;;;11.35;4.95;;;;;;;;;;4994547;28;20026;-61
2022/04/15 01:10:19;;;;;;;10.52;4.68;;;;;;;;;;4993869;28;20026;-62
2022/04/15 01:12:54;;;;;;;9.52;5.03;;;;;;;;;;4994318;28;20447;-61
2022/04/15 01:15:21;;;;;;;9.38;5.00;;;;;;;;;;4994259;28;20495;-60
2022/04/15 01:17:47;;;;;;;9.18;4.75;;;;;;;;;;4994169;28;20030;-61
2022/04/15 01:20:13;;;;;;;8.75;4.90;;;;;;;;;;4993959;28;20468;-60
2022/04/15 01:22:41;;;;;;;12.77;4.70;;;;;;;;;;4994169;28;20034;-60
2022/04/15 01:25:08;;;;;;;8.23;5.00;;;;;;;;;;4993953;28;20023;-60
2022/04/15 01:27:36;;;;;;;10.40;5.55;;;;;;;;;;4994090;28;20388;-60
2022/04/15 01:30:03;;;;;;;11.88;5.63;;;;;;;;;;4994131;28;20710;-60
2022/04/15 01:32:28;;;;;;;8.25;5.38;;;;;;;;;;4993888;28;20498;-59
2022/04/15 01:34:54;;;;;;;13.18;5.53;;;;;;;;;;4993642;28;20031;-59
2022/04/15 01:37:22;;;;;;;10.18;5.32;;;;;;;;;;4993959;28;20439;-59
2022/04/15 01:39:47;;;;;;;9.27;5.40;;;;;;;;;;4993924;28;20456;-60
2022/04/15 01:42:14;;;;;;;10.40;5.25;;;;;;;;;;4993762;28;20057;-60
2022/04/15 01:44:41;;;;;;;11.32;5.82;;;;;;;;;;4993669;28;20109;-62
2022/04/15 01:47:07;;;;;;;9.05;5.68;;;;;;;;;;4993632;28;20038;-60
2022/04/15 01:49:33;;;;;;;9.30;5.38;;;;;;;;;;4993396;28;20472;-62
2022/04/15 01:51:58;;;;;;;8.38;5.05;;;;;;;;;;4993595;28;20041;-60
2022/04/15 01:54:24;;;;;;;9.60;5.47;;;;;;;;;;4993397;28;20030;-62
2022/04/15 01:56:50;;;;;;;9.60;5.13;;;;;;;;;;4993668;28;20515;-60
2022/04/15 01:59:15;;;;;;;9.52;5.00;;;;;;;;;;4993638;28;20022;-59
2022/04/15 02:01:40;;;;;;;12.68;5.63;;;;;;;;;;4993490;28;20027;-61
2022/04/15 02:04:06;;;;;;;11.88;5.72;;;;;;;;;;4993123;28;20125;-60
2022/04/15 02:06:32;;;;;;;11.98;5.78;;;;;;;;;;4993301;28;20491;-62
2022/04/15 02:08:57;;;;;;;13.07;6.00;;;;;;;;;;4993254;28;20397;-61
2022/04/15 02:11:23;;;;;;;9.85;5.32;;;;;;;;;;4993354;28;20037;-60
2022/04/15 02:13:49;;;;;;;10.57;5.70;;;;;;;;;;4993191;28;20431;-60
2022/04/15 02:16:14;;;;;;;9.25;5.32;;;;;;;;;;4993209;28;20097;-61
2022/04/15 02:18:40;;;;;;;12.57;6.57;;;;;;;;;;4992793;28;20034;-61
2022/04/15 02:21:05;;;;;;;10.48;6.38;;;;;;;;;;4993043;28;20045;-60
2022/04/15 02:23:31;;;;;;;10.45;6.15;;;;;;;;;;4992548;28;20030;-61
2022/04/15 02:25:56;;;;;;;9.00;5.47;;;;;;;;;;4993052;28;20106;-61
2022/04/15 02:28:22;;;;;;;9.68;5.60;;;;;;;;;;4992900;28;20058;-61
2022/04/15 02:30:47;;;;;;;10.32;6.07;;;;;;;;;;4992834;28;20026;-61
2022/04/15 02:33:16;;;;;;;13.90;6.55;;;;;;;;;;4992947;28;20040;-59
2022/04/15 02:35:42;;;;;;;11.23;5.95;;;;;;;;;;4992923;28;20433;-62
2022/04/15 02:38:07;;;;;;;11.18;6.30;;;;;;;;;;4993053;28;20042;-60
2022/04/15 02:40:33;;;;;;;10.93;6.10;;;;;;;;;;4992717;28;20529;-59
2022/04/15 02:43:00;;;;;;;14.63;6.22;;;;;;;;;;4992809;28;20034;-61
2022/04/15 02:45:28;;;;;;;14.35;6.13;;;;;;;;;;4992611;28;20031;-59
2022/04/15 02:47:53;;;;;;;10.15;6.35;;;;;;;;;;4992675;28;20034;-59
2022/04/15 02:50:19;;;;;;;10.02;6.57;;;;;;;;;;4992827;28;20471;-60
2022/04/15 02:52:44;;;;;;;14.27;7.05;;;;;;;;;;4992712;28;20045;-60
2022/04/15 02:55:10;;;;;;;11.88;7.25;;;;;;;;;;4992620;28;20034;-60
2022/04/15 02:57:36;;;;;;;14.18;7.18;;;;;;;;;;4992729;28;20024;-60
2022/04/15 03:00:01;;;;;;;12.27;6.70;;;;;;;;;;4992538;28;20109;-61
2022/04/15 03:02:27;;;;;;;15.82;7.60;;;;;;;;;;4992434;28;20356;-60
2022/04/15 03:04:53;;;;;;;26.40;8.48;;;;;;;;;;4992544;28;20030;-61
2022/04/15 03:07:18;;;;;;;13.40;6.90;;;;;;;;;;4992635;28;20113;-61
2022/04/15 03:09:44;;;;;;;22.83;8.30;;;;;;;;;;4992531;28;20035;-60
2022/04/15 03:12:10;;;;;;;19.08;7.13;;;;;;;;;;4992572;28;20034;-61
2022/04/15 03:14:36;;;;;;;15.13;7.97;;;;;;;;;;4992255;28;20056;-60
2022/04/15 03:17:01;;;;;;;14.05;7.30;;;;;;;;;;4992521;28;20026;-61
2022/04/15 03:19:27;;;;;;;13.05;6.57;;;;;;;;;;4992447;28;20030;-61
2022/04/15 03:21:52;;;;;;;18.92;7.45;;;;;;;;;;4992465;28;20045;-62
2022/04/15 03:24:18;;;;;;;14.13;6.90;;;;;;;;;;4992420;28;20105;-60
2022/04/15 03:26:43;;;;;;;12.73;6.68;;;;;;;;;;4992470;28;20502;-59
2022/04/15 03:29:09;;;;;;;15.32;6.82;;;;;;;;;;4992196;28;20030;-61
2022/04/15 03:31:34;;;;;;;16.23;7.43;;;;;;;;;;4992304;28;20026;-62
2022/04/15 03:34:00;;;;;;;16.88;7.82;;;;;;;;;;4994201;28;20388;-60
2022/04/15 03:36:26;;;;;;;17.30;7.28;;;;;;;;;;4996091;28;20379;-62
2022/04/15 03:38:51;;;;;;;18.23;7.70;;;;;;;;;;4996129;28;20037;-59
2022/04/15 03:41:17;;;;;;;13.95;8.05;;;;;;;;;;4994748;28;20081;-62
2022/04/15 03:43:42;;;;;;;13.73;7.15;;;;;;;;;;4995898;28;20106;-61
2022/04/15 03:46:08;;;;;;;18.58;8.65;;;;;;;;;;4995896;28;20014;-60
2022/04/15 03:48:33;;;;;;;13.10;7.65;;;;;;;;;;4995904;28;20461;-60
2022/04/15 03:50:59;;;;;;;19.50;9.23;;;;;;;;;;4996022;28;20174;-59
2022/04/15 03:53:24;;;;;;;18.88;7.95;;;;;;;;;;4995837;28;20533;-61
2022/04/15 03:55:51;;;;;;;17.05;8.55;;;;;;;;;;4995629;28;20092;-59
2022/04/15 03:58:16;;;;;;;15.65;7.72;;;;;;;;;;4995501;28;20499;-61
2022/04/15 04:00:44;;;;;;;19.30;8.98;;;;;;;;;;4995783;28;20027;-60
2022/04/15 04:03:10;;;;;;;18.92;9.48;;;;;;;;;;4995324;28;20196;-62
2022/04/15 04:05:35;;;;;;;22.98;11.30;;;;;;;;;;4995532;28;20113;-60
2022/04/15 04:08:01;;;;;;;19.52;8.45;;;;;;;;;;4995451;28;20026;-60
2022/04/15 04:10:26;;;;;;;20.73;8.98;;;;;;;;;;4995376;28;20151;-60
2022/04/15 04:12:52;;;;;;;16.60;9.25;;;;;;;;;;4995135;28;20026;-61
2022/04/15 04:15:18;;;;;;;16.50;8.90;;;;;;;;;;4995478;28;20097;-61
2022/04/15 04:17:44;;;;;;;16.67;8.93;;;;;;;;;;4995311;28;20033;-59
2022/04/15 04:20:12;;;;;;;16.15;9.27;;;;;;;;;;4995327;28;20031;-59
2022/04/15 04:22:39;;;;;;;21.55;10.13;;;;;;;;;;4995157;28;20480;-60
2022/04/15 04:25:08;;;;;;;16.73;8.82;;;;;;;;;;4995099;28;20026;-60
2022/04/15 04:27:38;;;;;;;17.40;11.23;;;;;;;;;;4994887;28;20036;-59
2022/04/15 04:30:05;;;;;;;19.47;9.10;;;;;;;;;;4994992;28;20030;-59
2022/04/15 04:32:31;;;;;;;17.08;11.27;;;;;;;;;;4994986;28;20035;-59
2022/04/15 04:34:57;;;;;;;17.48;10.10;;;;;;;;;;4995166;28;20474;-61
2022/04/15 04:37:23;;;;;;;20.60;10.73;;;;;;;;;;4994976;28;20030;-60
2022/04/15 04:39:48;;;;;;;18.23;11.48;;;;;;;;;;4994919;28;20491;-60
2022/04/15 04:42:14;;;;;;;15.98;10.35;;;;;;;;;;4994571;28;20439;-60
2022/04/15 04:44:40;;;;;;;23.23;11.18;;;;;;;;;;4994229;28;20073;-61
2022/04/15 04:47:07;;;;;;;20.17;11.23;;;;;;;;;;4994476;28;20547;-60
2022/04/15 04:49:33;;;;;;;18.50;9.60;;;;;;;;;;4994771;28;20030;-61
2022/04/15 04:51:59;;;;;;;22.67;10.43;;;;;;;;;;4994715;28;20490;-59
2022/04/15 04:54:25;;;;;;;25.05;11.13;;;;;;;;;;4994552;28;20026;-59
2022/04/15 04:56:50;;;;;;;19.88;10.50;;;;;;;;;;4994569;28;20492;-60
2022/04/15 04:59:16;;;;;;;18.83;10.82;;;;;;;;;;4994689;28;20038;-60
2022/04/15 05:01:41;;;;;;;23.15;11.13;;;;;;;;;;4994477;28;20034;-59
2022/04/15 05:04:07;;;;;;;19.77;9.50;;;;;;;;;;4994361;28;20551;-62
2022/04/15 05:06:32;;;;;;;20.90;11.52;;;;;;;;;;4994358;28;20080;-61
2022/04/15 05:08:58;;;;;;;16.65;9.90;;;;;;;;;;4994234;28;20400;-58
2022/04/15 05:11:23;;;;;;;21.85;10.80;;;;;;;;;;4994354;28;20026;-61
2022/04/15 05:13:50;;;;;;;21.75;10.80;;;;;;;;;;4994435;28;20110;-59
2022/04/15 05:16:16;;;;;;;17.90;9.88;;;;;;;;;;4994278;28;20034;-59
2022/04/15 05:18:41;;;;;;;23.05;12.10;;;;;;;;;;4994396;28;20026;-59
2022/04/15 05:21:07;;;;;;;19.08;10.70;;;;;;;;;;4994033;28;20397;-60
2022/04/15 05:23:33;;;;;;;17.92;11.70;;;;;;;;;;4994018;28;20364;-59
2022/04/15 05:25:59;;;;;;;19.00;11.13;;;;;;;;;;4993864;28;20038;-59
2022/04/15 05:28:24;;;;;;;22.30;12.15;;;;;;;;;;4993701;28;20030;-60
2022/04/15 05:30:50;;;;;;;19.15;10.82;;;;;;;;;;4994104;28;20027;-60
2022/04/15 05:33:15;;;;;;;20.25;10.63;;;;;;;;;;4993920;28;20042;-59
2022/04/15 05:35:41;;;;;;;16.63;9.70;;;;;;;;;;4993924;28;20022;-59
2022/04/15 05:38:09;;;;;;;19.35;10.95;;;;;;;;;;4993946;28;20030;-60
2022/04/15 05:40:35;;;;;;;21.10;10.75;;;;;;;;;;4997190;28;20029;-61
2022/04/15 05:43:00;;;;;;;15.20;9.80;;;;;;;;;;5013381;28;20026;-60
2022/04/15 05:45:26;;;;;;;21.98;10.35;;;;;;;;;;5013241;28;20033;-59
2022/04/15 05:47:53;;;;;;;23.00;10.93;;;;;;;;;;5011343;28;20026;-60
2022/04/15 05:50:20;;;;;;;20.30;10.77;;;;;;;;;;4993632;28;20101;-59
2022/04/15 05:52:45;;;;;;;22.63;10.70;;;;;;;;;;4993570;28;20031;-60
2022/04/15 05:55:11;;;;;;;26.65;11.90;;;;;;;;;;4993265;28;20101;-61
2022/04/15 05:57:36;;;;;;;20.20;11.52;;;;;;;;;;4993628;28;20387;-59
2022/04/15 06:00:06;;;;;;;19.17;11.00;;;;;;;;;;4993801;28;20026;-59
2022/04/15 06:02:31;;;;;;;21.75;10.63;;;;;;;;;;4993230;28;20026;-59
2022/04/15 06:04:58;;;;;;;19.77;10.55;;;;;;;;;;4993432;28;20029;-59
2022/04/15 06:07:23;;;;;;;20.52;11.25;;;;;;;;;;4993163;28;20030;-60
2022/04/15 06:09:48;;;;;;;19.42;10.60;;;;;;;;;;4993329;28;20340;-61
2022/04/15 06:12:15;;;;;;;21.27;10.23;;;;;;;;;;4993169;28;20432;-59
2022/04/15 06:14:41;;;;;;;19.42;10.63;;;;;;;;;;4993227;28;20038;-60
2022/04/15 06:17:07;;;;;;;15.88;10.25;;;;;;;;;;4992928;28;20049;-59
2022/04/15 06:19:32;;;;;;;20.33;10.63;;;;;;;;;;4993149;28;20057;-59
2022/04/15 06:21:58;;;;;;;21.50;10.40;;;;;;;;;;4992812;28;20052;-59
2022/04/15 06:24:23;;;;;;;22.20;12.93;;;;;;;;;;4992735;28;20034;-61
2022/04/15 06:26:50;;;;;;;20.30;11.32;;;;;;;;;;4993075;28;20034;-59
2022/04/15 06:29:16;;;;;;;18.65;11.60;;;;;;;;;;5008290;28;20108;-60
2022/04/15 06:31:42;;;;;;;19.98;10.90;;;;;;;;;;4995702;28;20027;-58
2022/04/15 06:34:07;;;;;;;17.85;11.63;;;;;;;;;;5007258;28;20049;-58
2022/04/15 06:36:33;;;;;;;17.90;11.63;;;;;;;;;;5001067;28;20119;-61
2022/04/15 06:38:58;;;;;;;18.27;12.93;;;;;;;;;;5000124;28;20045;-61
2022/04/15 06:41:24;;;;;;;19.65;11.20;;;;;;;;;;5007796;28;20026;-59
2022/04/15 06:43:49;;;;;;;19.95;12.93;;;;;;;;;;4995633;28;20023;-59
2022/04/15 06:46:15;;;;;;;18.67;11.13;;;;;;;;;;5006066;28;20425;-61
2022/04/15 06:48:40;;;;;;;18.60;11.55;;;;;;;;;;5002077;28;20037;-59
2022/04/15 06:51:06;;;;;;;20.63;10.10;;;;;;;;;;5006835;28;20026;-59
2022/04/15 06:53:31;;;;;;;21.15;12.27;;;;;;;;;;4995573;28;20030;-59
2022/04/15 06:55:57;;;;;;;23.02;11.63;;;;;;;;;;5008494;28;20014;-61
2022/04/15 06:58:22;;;;;;;23.55;11.93;;;;;;;;;;4999570;28;20038;-60
2022/04/15 07:00:48;;;;;;;16.13;10.77;;;;;;;;;;5001626;28;20383;-59
2022/04/15 07:03:14;;;;;;;21.27;11.90;;;;;;;;;;5006236;28;20060;-59
2022/04/15 07:05:40;;;;;;;23.33;11.68;;;;;;;;;;4995721;28;20030;-59
2022/04/15 07:08:08;;;;;;;21.67;11.55;;;;;;;;;;5007287;28;20022;-60
2022/04/15 07:10:35;;;;;;;20.90;11.18;;;;;;;;;;5005003;28;20053;-60
2022/04/15 07:13:01;;;;;;;17.60;11.38;;;;;;;;;;5003632;28;20038;-61
2022/04/15 07:15:26;;;;;;;22.30;11.98;;;;;;;;;;5012017;28;20076;-60
2022/04/15 07:17:52;;;;;;;23.83;10.98;;;;;;;;;;4999624;28;20049;-61
2022/04/15 07:20:17;;;;;;;21.27;11.07;;;;;;;;;;5009313;28;20361;-61
2022/04/15 07:22:43;;;;;;;17.92;10.63;;;;;;;;;;5005453;28;20026;-60
2022/04/15 07:25:09;;;;;;;23.73;12.55;;;;;;;;;;5013013;28;20041;-60
2022/04/15 07:27:34;;;;;;;20.67;11.55;;;;;;;;;;4996317;28;20030;-60
2022/04/15 07:30:01;;;;;;;20.13;12.43;;;;;;;;;;4997777;28;20030;-60
2022/04/15 07:32:28;;;;;;;17.90;11.00;;;;;;;;;;4995454;28;20494;-61
2022/04/15 07:34:54;;;;;;;20.63;10.77;;;;;;;;;;4994781;28;20055;-61
2022/04/15 07:37:19;;;;;;;12.02;8.07;;;;;;;;;;4994482;28;20082;-61
2022/04/15 07:39:45;;;;;;;18.15;9.15;;;;;;;;;;4996141;28;20077;-60
2022/04/15 07:42:12;;;;;;;14.18;8.95;;;;;;;;;;4995289;28;20037;-60
2022/04/15 07:44:38;;;;;;;13.43;8.15;;;;;;;;;;4995272;28;20074;-60
2022/04/15 07:47:04;;;;;;;17.42;9.90;;;;;;;;;;4995647;28;20081;-61
2022/04/15 07:49:30;;;;;;;12.93;7.65;;;;;;;;;;4995729;28;20122;-61
2022/04/15 07:51:55;;;;;;;11.43;7.05;;;;;;;;;;4994938;28;20034;-60
2022/04/15 07:54:21;;;;;;;10.45;7.10;;;;;;;;;;4995189;28;20034;-60
2022/04/15 07:56:47;;;;;;;11.73;7.10;;;;;;;;;;4995316;28;20026;-60
2022/04/15 07:59:12;;;;;;;8.57;5.45;;;;;;;;;;4995442;28;20076;-61
2022/04/15 08:01:38;;;;;;;11.57;7.45;;;;;;;;;;4995637;28;20400;-61
2022/04/15 08:04:05;;;;;;;10.65;5.18;;;;;;;;;;4995433;28;20349;-62
2022/04/15 08:06:31;;;;;;;14.02;6.68;;;;;;;;;;4995246;28;20030;-61
2022/04/15 08:08:58;;;;;;;8.95;5.28;;;;;;;;;;4994679;28;20484;-62
2022/04/15 08:11:25;;;;;;;9.15;5.57;;;;;;;;;;4994216;28;20027;-61
2022/04/15 08:13:51;;;;;;;8.30;5.55;;;;;;;;;;4995160;28;20396;-62
2022/04/15 08:16:17;;;;;;;10.85;7.10;;;;;;;;;;4994656;28;20109;-62
2022/04/15 08:18:42;;;;;;;49.75;25.92;;;;;;;;;;4995453;28;20437;-61
2022/04/15 08:21:08;;;;;;;37.15;19.33;;;;;;;;;;4993610;28;20022;-61
2022/04/15 08:23:34;;;;;;;61.70;29.27;;;;;;;;;;4995089;28;20042;-62
2022/04/15 08:25:59;;;;;;;17.73;10.23;;;;;;;;;;4995000;28;20034;-61
2022/04/15 08:28:25;;;;;;;8.65;5.80;;;;;;;;;;4994987;28;20057;-59
2022/04/15 08:30:50;;;;;;;6.82;5.50;;;;;;;;;;4995149;28;20026;-60
2022/04/15 08:33:16;;;;;;;7.95;5.60;;;;;;;;;;4994617;28;20026;-60
2022/04/15 08:35:42;;;;;;;9.02;6.90;;;;;;;;;;4993894;28;20122;-60
2022/04/15 08:38:07;;;;;;;9.20;6.20;;;;;;;;;;4994983;28;20025;-60
2022/04/15 08:40:35;;;;;;;7.68;4.20;;;;;;;;;;4994948;28;20071;-59
2022/04/15 08:43:03;;;;;;;8.05;5.72;;;;;;;;;;4994928;28;20084;-60
2022/04/15 08:45:29;;;;;;;8.20;5.30;;;;;;;;;;4994912;28;20383;-60
2022/04/15 08:47:59;;;;;;;8.20;5.25;;;;;;;;;;4994746;28;20030;-60
2022/04/15 08:50:26;;;;;;;10.13;6.00;;;;;;;;;;4994567;28;20033;-61
2022/04/15 08:52:55;;;;;;;7.55;5.50;;;;;;;;;;4994741;28;20038;-61
2022/04/15 08:55:21;;;;;;;7.90;6.13;;;;;;;;;;4994663;28;20373;-60
2022/04/15 08:57:51;;;;;;;10.05;6.32;;;;;;;;;;4994670;28;20041;-60
2022/04/15 09:00:17;;;;;;;9.82;6.13;;;;;;;;;;4994652;28;20380;-61
2022/04/15 09:02:43;;;;;;;11.05;7.43;;;;;;;;;;4994180;28;20058;-62
2022/04/15 09:05:09;;;;;;;11.55;6.40;;;;;;;;;;4994172;28;20549;-60
2022/04/15 09:07:36;;;;;;;11.18;6.18;;;;;;;;;;4994524;28;20476;-60
2022/04/15 09:10:05;;;;;;;10.60;6.90;;;;;;;;;;4992830;28;20022;-60
2022/04/15 09:12:30;;;;;;;6.68;4.53;;;;;;;;;;4994273;28;20772;-60
2022/04/15 09:15:00;;;;;;;8.65;5.75;;;;;;;;;;4994357;28;20025;-60
2022/04/15 09:17:29;;;;;;;29.50;22.95;;;;;;;;;;4994192;28;20507;-60
2022/04/15 09:19:59;;;;;;;15.88;11.98;;;;;;;;;;4994216;28;20034;-60
2022/04/15 09:22:25;;;;;;;19.25;11.90;;;;;;;;;;4994070;28;20026;-61
2022/04/15 09:24:53;;;;;;;28.58;16.30;;;;;;;;;;4993969;28;20030;-60
2022/04/15 09:27:25;;;;;;;24.30;15.55;;;;;;;;;;4994234;28;20026;-60
2022/04/15 09:29:52;;;;;;;16.63;10.40;;;;;;;;;;4993981;28;20030;-61
2022/04/15 09:32:18;;;;;;;19.17;11.57;;;;;;;;;;4993211;28;20033;-61
2022/04/15 09:35:00;;;;;;;6.63;3.72;;;;;;;;;;4994041;28;20057;-61
2022/04/15 09:37:30;;;;;;;9.57;6.25;;;;;;;;;;4994026;28;20023;-60
2022/04/15 09:40:05;;;;;;;7.47;5.03;;;;;;;;;;4993990;28;20053;-61
2022/04/15 09:42:31;;;;;;;7.53;5.20;;;;;;;;;;4993770;28;20034;-60
2022/04/15 09:45:00;;;;;;;6.68;5.10;;;;;;;;;;4993787;28;20110;-61
2022/04/15 09:47:27;;;;;;;6.00;3.22;;;;;;;;;;4993205;28;20023;-60
2022/04/15 09:49:53;;;;;;;6.60;3.22;;;;;;;;;;4993846;28;20022;-61
2022/04/15 09:52:25;;;;;;;3.88;2.80;;;;;;;;;;4993395;28;20022;-61
2022/04/15 09:54:55;;;;;;;3.85;2.90;;;;;;;;;;4993604;28;20026;-60
2022/04/15 09:57:22;;;;;;;;;;;;;;;;;;4994069;28;20018;-61
2022/04/15 09:59:50;;;;;;;5.18;3.65;;;;;;;;;;4993589;28;19913;-61
2022/04/15 10:02:16;;;;;;;4.00;2.95;;;;;;;;;;5001223;28;20022;-61
2022/04/15 10:04:42;;;;;;;4.55;3.38;;;;;;;;;;5009068;28;20196;-60
2022/04/15 10:07:08;;;;;;;4.82;3.28;;;;;;;;;;4998904;28;20034;-61
2022/04/15 10:09:42;;;;;;;2.78;1.75;;;;;;;;;;5003801;28;20026;-61
2022/04/15 10:12:07;;;;;;;3.17;2.30;;;;;;;;;;5006431;28;20062;-61
2022/04/15 10:14:38;;;;;;;3.55;2.63;;;;;;;;;;5012624;28;20026;-61
2022/04/15 10:17:04;;;;;;;3.88;2.65;;;;;;;;;;5012670;28;20025;-60
2022/04/15 10:19:29;;;;;;;3.40;2.80;;;;;;;;;;5012616;28;20038;-61
2022/04/15 10:21:56;;;;;;;4.30;3.20;;;;;;;;;;5011254;28;20034;-60
2022/04/15 10:24:25;;;;;;;4.38;2.90;;;;;;;;;;5011298;28;20017;-60
2022/04/15 10:26:57;;;;;;;5.70;3.95;;;;;;;;;;4992778;28;20058;-59
2022/04/15 10:29:22;;;;;;;8.45;4.80;;;;;;;;;;4992975;28;20042;-61
2022/04/15 10:31:48;;;;;;;6.70;4.30;;;;;;;;;;4992812;28;20044;-60
2022/04/15 10:34:19;;;;;;;8.52;5.40;;;;;;;;;;4992890;28;20026;-61
2022/04/15 10:36:47;;;;;;;9.25;6.45;;;;;;;;;;4992967;28;20085;-61
2022/04/15 10:39:18;;;;;;;9.45;6.25;;;;;;;;;;4992763;28;20084;-60
2022/04/15 10:41:46;;;;;;;11.60;7.32;;;;;;;;;;4992931;28;20032;-61
2022/04/15 10:44:14;;;;;;;14.35;8.13;;;;;;;;;;4991797;28;20054;-60
2022/04/15 10:46:40;;;;;;;14.07;7.40;;;;;;;;;;5004496;28;20675;-61
2022/04/15 10:49:37;;;;;;;15.88;8.75;;;;;;;;;;4998179;28;20058;-61
2022/04/15 10:52:21;;;;;;;17.30;8.70;;;;;;;;;;4983324;28;20034;-61
2022/04/15 10:54:51;;;;;;;17.10;8.75;;;;;;;;;;5005903;28;20029;-61
2022/04/15 10:57:21;;;;;;;17.63;8.73;;;;;;;;;;5012422;28;20026;-61
2022/04/15 11:02:50;;;;;;;23.48;11.18;;;;;;;;;;5004573;28;19925;-60
2022/04/15 11:05:32;;;;;;;23.45;11.20;;;;;;;;;;4990489;28;20030;-60
2022/04/15 11:08:04;;;;;;;27.02;12.88;;;;;;;;;;4992786;28;20472;-61
2022/04/15 11:10:51;;;;;;;26.02;12.77;;;;;;;;;;4992614;28;20120;-61
2022/04/15 11:13:22;;;;;;;29.05;13.07;;;;;;;;;;4992164;28;20026;-60
2022/04/15 11:16:10;;;;;;;27.48;12.13;;;;;;;;;;4992941;28;20030;-60
2022/04/15 11:18:50;;;;;;;24.60;13.18;;;;;;;;;;4996830;28;20040;-60
2022/04/15 11:21:24;;;;;;;23.38;11.77;;;;;;;;;;4992272;28;20050;-60
2022/04/15 11:23:52;;;;;;;25.17;12.90;;;;;;;;;;4998077;28;20077;-60
2022/04/15 11:26:18;;;;;;;23.33;11.73;;;;;;;;;;4992843;28;20539;-61
2022/04/15 11:28:50;;;;;;;27.65;11.75;;;;;;;;;;5005798;28;20034;-61
2022/04/15 11:31:26;;;;;;;29.02;11.52;;;;;;;;;;5012098;28;20097;-61
2022/04/15 11:33:53;;;;;;;25.45;12.30;;;;;;;;;;5012091;28;20133;-62
2022/04/15 11:36:20;;;;;;;24.77;11.98;;;;;;;;;;5011853;28;20025;-60
2022/04/15 11:38:47;;;;;;;28.67;12.15;;;;;;;;;;5012056;28;20026;-61
2022/04/15 11:41:21;;;;;;;26.08;12.10;;;;;;;;;;5011908;28;20034;-59
2022/04/15 11:44:06;;;;;;;26.25;11.40;;;;;;;;;;5011722;28;20026;-59
2022/04/15 11:46:48;;;;;;;22.65;11.02;;;;;;;;;;5011796;28;20037;-61
2022/04/15 11:49:28;;;;;;;26.05;12.18;;;;;;;;;;5011980;28;20029;-60
2022/04/15 11:51:56;;;;;;;23.60;11.75;;;;;;;;;;5011629;28;20112;-59
2022/04/15 11:54:39;;;;;;;27.17;11.93;;;;;;;;;;5002789;28;20046;-60
2022/04/15 11:57:06;;;;;;;29.45;15.05;;;;;;;;;;4995737;28;20032;-58
2022/04/15 11:59:43;;;;;;;37.38;17.15;;;;;;;;;;4994838;28;20476;-60
2022/04/15 12:02:09;;;;;;;44.70;21.38;;;;;;;;;;5012382;28;20033;-59
2022/04/15 12:04:35;;;;;;;54.00;22.48;;;;;;;;;;4982338;28;20450;-60
2022/04/15 12:07:02;;;;;;;53.85;24.80;;;;;;;;;;4997661;28;20018;-60
2022/04/15 12:09:27;;;;;;;64.03;26.63;;;;;;;;;;5005849;28;20025;-61
2022/04/15 12:11:53;;;;;;;51.97;24.33;;;;;;;;;;5000721;28;20031;-61
2022/04/15 12:14:19;;;;;;;57.00;26.83;;;;;;;;;;5011151;28;20045;-61
2022/04/15 12:16:47;;;;;;;45.40;24.23;;;;;;;;;;4999667;28;20049;-60
2022/04/15 12:19:13;;;;;;;38.78;20.98;;;;;;;;;;5006287;28;20057;-60
2022/04/15 12:21:38;;;;;;;35.60;19.05;;;;;;;;;;5007201;28;20021;-61
2022/04/15 12:24:04;;;;;;;25.88;13.93;;;;;;;;;;4999282;28;20037;-59
2022/04/15 12:26:47;;;;;;;24.58;12.52;;;;;;;;;;5002467;28;20034;-61
2022/04/15 12:32:23;;;;;;;24.85;14.45;;;;;;;;;;5010978;28;20427;-61
2022/04/15 12:35:11;;;;;;;17.10;9.90;;;;;;;;;;4985897;28;20017;-62
2022/04/15 12:37:49;;;;;;;17.63;9.65;;;;;;;;;;5002876;28;20028;-60
2022/04/15 12:40:14;;;;;;;19.80;11.38;;;;;;;;;;5010784;28;20030;-61
2022/04/15 12:42:42;;;;;;;17.88;10.23;;;;;;;;;;4998512;28;20490;-60
2022/04/15 12:45:11;;;;;;;17.48;8.40;;;;;;;;;;5006780;28;20026;-59
2022/04/15 12:47:38;;;;;;;14.20;7.80;;;;;;;;;;5006353;28;20061;-61
2022/04/15 12:50:20;;;;;;;15.15;7.97;;;;;;;;;;5003935;28;20084;-59
2022/04/15 12:52:48;;;;;;;15.68;7.10;;;;;;;;;;4998896;28;20034;-61
2022/04/15 12:55:14;;;;;;;13.15;7.32;;;;;;;;;;5009909;28;20037;-61
2022/04/15 12:57:40;;;;;;;12.95;7.57;;;;;;;;;;5007985;28;20101;-61
2022/04/15 13:00:10;;;;;;;9.77;6.22;;;;;;;;;;5004036;28;20066;-61
2022/04/15 13:02:37;;;;;;;10.00;6.43;;;;;;;;;;5014041;28;20030;-60
2022/04/15 13:05:06;;;;;;;11.50;5.70;;;;;;;;;;5014145;28;20033;-60
2022/04/15 13:07:35;;;;;;;11.75;7.53;;;;;;;;;;5013362;28;20029;-61
2022/04/15 13:10:01;;;;;;;14.80;8.45;;;;;;;;;;5013970;28;20026;-60
2022/04/15 13:12:27;;;;;;;12.52;7.40;;;;;;;;;;5013971;28;20040;-61
2022/04/15 13:14:53;;;;;;;24.80;11.32;;;;;;;;;;5013877;28;20080;-61
2022/04/15 13:17:19;;;;;;;25.77;15.63;;;;;;;;;;5006502;28;20473;-61
2022/04/15 13:19:46;;;;;;;25.17;13.85;;;;;;;;;;4994188;28;20413;-60
2022/04/15 13:22:12;;;;;;;23.30;14.75;;;;;;;;;;4994022;28;20467;-59
2022/04/15 13:24:38;;;;;;;20.73;12.18;;;;;;;;;;4994070;28;20049;-60
2022/04/15 13:27:04;;;;;;;31.65;17.95;;;;;;;;;;4994042;28;20034;-61
2022/04/15 13:29:32;;;;;;;32.13;16.52;;;;;;;;;;4993810;28;20026;-61
2022/04/15 13:31:58;;;;;;;20.35;11.93;;;;;;;;;;4993983;28;20025;-61
2022/04/15 13:34:23;;;;;;;25.80;13.73;;;;;;;;;;4993703;28;20365;-58
2022/04/15 13:36:49;;;;;;;17.75;10.35;;;;;;;;;;4994053;28;20053;-59
2022/04/15 13:39:14;;;;;;;19.88;9.95;;;;;;;;;;4993699;28;20034;-59
2022/04/15 13:41:41;;;;;;;19.50;9.98;;;;;;;;;;4993695;28;20018;-58
2022/04/15 13:44:08;;;;;;;19.15;10.00;;;;;;;;;;4993791;28;20057;-58
2022/04/15 13:46:34;;;;;;;17.42;7.93;;;;;;;;;;4993685;28;20387;-59
2022/04/15 13:49:00;;;;;;;18.70;7.15;;;;;;;;;;4993781;28;20033;-61
2022/04/15 13:51:25;;;;;;;18.00;8.18;;;;;;;;;;4993821;28;20030;-59
2022/04/15 13:56:37;;;;;;;16.98;7.18;;;;;;;;;;4993673;28;20559;-60
2022/04/15 13:59:04;;;;;;;16.17;7.78;;;;;;;;;;4993635;28;20033;-61
2022/04/15 14:01:33;;;;;;;15.57;7.38;;;;;;;;;;4993609;28;20391;-61
2022/04/15 14:04:01;;;;;;;17.63;8.38;;;;;;;;;;4993257;28;20133;-61
2022/04/15 14:06:27;;;;;;;19.27;7.40;;;;;;;;;;4992003;28;20034;-61
2022/04/15 14:08:52;;;;;;;19.17;9.63;;;;;;;;;;4992884;28;20029;-61
2022/04/15 14:11:20;;;;;;;15.50;7.72;;;;;;;;;;4993553;28;20065;-61
2022/04/15 14:13:46;;;;;;;22.40;10.60;;;;;;;;;;4992932;28;20033;-60
2022/04/15 14:16:13;;;;;;;18.38;9.85;;;;;;;;;;4993307;28;20037;-58
2022/04/15 14:18:39;;;;;;;19.85;8.02;;;;;;;;;;4992276;28;20123;-60
2022/04/15 14:21:06;;;;;;;18.63;8.43;;;;;;;;;;4993329;28;20156;-60
2022/04/15 14:23:32;;;;;;;19.55;7.97;;;;;;;;;;4993033;28;20026;-61
2022/04/15 14:25:58;;;;;;;17.55;8.15;;;;;;;;;;4993046;28;20101;-61
2022/04/15 14:28:26;;;;;;;64.03;23.80;;;;;;;;;;4991303;28;20034;-61
2022/04/15 14:30:52;;;;;;;21.67;8.20;;;;;;;;;;4993195;28;20022;-61
2022/04/15 14:33:18;;;;;;;24.25;11.10;;;;;;;;;;4992591;28;20038;-59
2022/04/15 14:35:44;;;;;;;28.30;12.55;;;;;;;;;;4992999;28;20022;-61
2022/04/15 14:38:11;;;;;;;23.15;9.52;;;;;;;;;;4992760;28;20034;-59